< Cyclone 202112 2021 Season Cyclone 202117 >
Cyclone 202115 (Marian)
General InformationTrack Information on Google MapsDetailed Wind Information || ResourceGoogle EarthGE AnimationAtom FeedGeoJSON
Year Month Day Hour Lat. Long. Pressure (hPa) Wind (kt) Class Image Chart
2021 2 21 06 -13.2 129.8 1001 15 2 Image --
2021 2 21 12 -13.2 129.6 1003 15 2 Image --
2021 2 21 18 -13.2 129.4 1003 15 2 Image --
2021 2 22 00 -13.2 129.1 1004 15 2 Image --
2021 2 22 06 -12.9 127.9 1001 15 2 Image --
2021 2 22 12 -12.7 126.0 1006 15 2 Image --
2021 2 22 18 -12.4 124.5 1006 15 2 Image --
2021 2 23 00 -13.1 122.8 1002 15 2 Image --
2021 2 23 06 -13.2 120.9 1002 15 2 Image --
2021 2 23 12 -13.2 118.4 1008 15 2 Image --
2021 2 23 18 -13.1 116.3 1007 15 2 Image --
2021 2 24 00 -12.7 114.6 1002 15 2 Image --
2021 2 24 06 -12.7 112.4 1000 20 2 Image --
2021 2 24 12 -12.5 109.7 999 25 2 Image --
2021 2 24 18 -12.1 108.0 997 30 2 Image --
2021 2 25 00 -12.3 106.9 997 30 2 Image --
2021 2 25 06 -12.9 105.8 997 30 2 Image --
2021 2 25 12 -13.2 104.0 995 30 2 Image --
2021 2 25 18 -13.7 102.3 994 35 3 Image --
2021 2 26 00 -14.1 100.5 994 40 3 Image --
2021 2 26 06 -14.4 98.9 993 40 3 Image --
2021 2 26 12 -14.4 97.1 987 50 4 Image --
2021 2 26 18 -14.4 95.8 987 50 4 Image --
2021 2 27 00 -14.7 95.0 978 60 4 Image --
2021 2 27 06 -15.2 94.1 978 60 4 Image --
2021 2 27 12 -15.9 93.4 976 60 4 Image --
2021 2 27 18 -16.3 92.6 976 60 4 Image --
2021 2 28 00 -16.7 92.2 970 65 5 Image --
2021 2 28 06 -17.0 91.7 970 65 5 Image --
2021 2 28 12 -17.4 91.3 962 80 5 Image --
2021 2 28 18 -17.6 90.9 961 80 5 Image --
2021 3 1 00 -17.7 90.4 963 80 5 Image --
2021 3 1 06 -17.8 90.0 964 80 5 Image --
2021 3 1 12 -18.1 89.6 960 80 5 Image --
2021 3 1 18 -18.3 89.6 960 80 5 Image --
2021 3 2 00 -18.5 89.6 955 85 5 Image --
2021 3 2 06 -18.5 89.7 958 80 5 Image --
2021 3 2 12 -18.5 90.0 959 80 5 Image --
2021 3 2 18 -18.5 90.4 962 65 5 Image --
2021 3 3 00 -18.6 90.7 977 55 4 Image --
2021 3 3 06 -18.8 91.3 987 50 4 Image --
2021 3 3 12 -19.0 92.0 983 50 4 Image --
2021 3 3 18 -19.8 92.8 984 50 4 Image --
2021 3 4 00 -20.5 93.2 990 40 3 Image --
2021 3 4 06 -21.0 93.6 985 45 3 Image --
2021 3 4 12 -21.6 94.1 985 45 3 Image --
2021 3 4 18 -22.3 94.6 986 45 3 Image --
2021 3 5 00 -22.9 94.8 984 45 3 Image --
2021 3 5 06 -23.6 94.9 986 45 3 Image --
2021 3 5 12 -24.3 95.2 988 45 3 Image --
2021 3 5 18 -25.0 95.7 990 40 3 Image --
2021 3 6 00 -25.7 96.2 990 40 3 Image --
2021 3 6 06 -26.4 96.6 992 40 3 Image --
2021 3 6 12 -27.2 96.7 992 40 3 Image --
2021 3 6 18 -27.8 96.9 994 30 2 Image --
2021 3 7 00 -28.4 97.2 996 30 2 Image --
2021 3 7 06 -28.6 96.7 998 30 2 Image --
2021 3 7 12 -28.0 96.7 1000 25 2 Image --
2021 3 7 18 -28.0 97.3 1002 20 2 Image --
2021 3 8 00 -28.7 97.7 1004 15 2 Image --
2021 3 8 06 -29.5 98.2 1004 15 2 Image --
2021 3 8 12 -30.2 98.3 1004 15 2 Image --
2021 3 9 00 -31.4 97.9 1006 15 2 Image --
< Cyclone 202112 2021 Season Cyclone 202117 >

Help